sensor_id;sensor_type;location;lat;lon;timestamp;P1;durP1;ratioP1;P2;durP2;ratioP2
7001;SDS011;3541;53.230;10.518;2022-07-22T00:02:19;9.65;;;8.48;;
7001;SDS011;3541;53.230;10.518;2022-07-22T00:04:46;9.00;;;8.02;;
7001;SDS011;3541;53.230;10.518;2022-07-22T00:07:12;9.30;;;8.40;;
7001;SDS011;3541;53.230;10.518;2022-07-22T00:09:39;9.05;;;8.25;;
7001;SDS011;3541;53.230;10.518;2022-07-22T00:12:05;8.80;;;8.00;;
7001;SDS011;3541;53.230;10.518;2022-07-22T00:14:32;8.63;;;7.82;;
7001;SDS011;3541;53.230;10.518;2022-07-22T00:17:00;8.98;;;8.13;;
7001;SDS011;3541;53.230;10.518;2022-07-22T00:19:27;10.30;;;8.50;;
7001;SDS011;3541;53.230;10.518;2022-07-22T00:21:53;8.82;;;7.97;;
7001;SDS011;3541;53.230;10.518;2022-07-22T00:24:20;9.00;;;8.10;;
7001;SDS011;3541;53.230;10.518;2022-07-22T00:26:47;9.27;;;8.40;;
7001;SDS011;3541;53.230;10.518;2022-07-22T00:29:13;9.02;;;8.23;;
7001;SDS011;3541;53.230;10.518;2022-07-22T00:31:40;9.15;;;8.25;;
7001;SDS011;3541;53.230;10.518;2022-07-22T00:34:08;9.30;;;8.48;;
7001;SDS011;3541;53.230;10.518;2022-07-22T00:36:34;10.80;;;8.60;;
7001;SDS011;3541;53.230;10.518;2022-07-22T00:39:01;9.48;;;8.45;;
7001;SDS011;3541;53.230;10.518;2022-07-22T00:41:28;9.93;;;8.93;;
7001;SDS011;3541;53.230;10.518;2022-07-22T00:43:57;8.50;;;7.72;;
7001;SDS011;3541;53.230;10.518;2022-07-22T00:46:25;9.70;;;8.57;;
7001;SDS011;3541;53.230;10.518;2022-07-22T00:48:52;10.63;;;7.97;;
7001;SDS011;3541;53.230;10.518;2022-07-22T00:51:21;8.52;;;7.75;;
7001;SDS011;3541;53.230;10.518;2022-07-22T00:53:49;9.25;;;8.35;;
7001;SDS011;3541;53.230;10.518;2022-07-22T00:56:16;9.15;;;8.25;;
7001;SDS011;3541;53.230;10.518;2022-07-22T00:58:44;9.60;;;8.60;;
7001;SDS011;3541;53.230;10.518;2022-07-22T01:01:11;8.70;;;7.90;;
7001;SDS011;3541;53.230;10.518;2022-07-22T01:03:39;9.02;;;8.13;;
7001;SDS011;3541;53.230;10.518;2022-07-22T01:06:06;8.98;;;8.07;;
7001;SDS011;3541;53.230;10.518;2022-07-22T01:08:35;9.35;;;8.55;;
7001;SDS011;3541;53.230;10.518;2022-07-22T01:11:08;9.10;;;8.27;;
7001;SDS011;3541;53.230;10.518;2022-07-22T01:13:35;9.43;;;8.30;;
7001;SDS011;3541;53.230;10.518;2022-07-22T01:16:02;8.88;;;8.00;;
7001;SDS011;3541;53.230;10.518;2022-07-22T01:18:30;9.18;;;8.32;;
7001;SDS011;3541;53.230;10.518;2022-07-22T01:20:58;9.30;;;8.40;;
7001;SDS011;3541;53.230;10.518;2022-07-22T01:23:25;9.05;;;8.15;;
7001;SDS011;3541;53.230;10.518;2022-07-22T01:25:52;10.38;;;8.20;;
7001;SDS011;3541;53.230;10.518;2022-07-22T01:28:18;9.50;;;8.50;;
7001;SDS011;3541;53.230;10.518;2022-07-22T01:30:45;10.15;;;9.23;;
7001;SDS011;3541;53.230;10.518;2022-07-22T01:33:12;9.55;;;8.73;;
7001;SDS011;3541;53.230;10.518;2022-07-22T01:35:39;9.40;;;8.60;;
7001;SDS011;3541;53.230;10.518;2022-07-22T01:38:07;8.80;;;8.00;;
7001;SDS011;3541;53.230;10.518;2022-07-22T01:40:33;8.80;;;8.00;;
7001;SDS011;3541;53.230;10.518;2022-07-22T01:43:00;10.48;;;9.48;;
7001;SDS011;3541;53.230;10.518;2022-07-22T01:45:27;10.13;;;9.13;;
7001;SDS011;3541;53.230;10.518;2022-07-22T01:47:53;10.45;;;9.45;;
7001;SDS011;3541;53.230;10.518;2022-07-22T01:50:20;10.80;;;9.75;;
7001;SDS011;3541;53.230;10.518;2022-07-22T01:52:47;11.98;;;10.77;;
7001;SDS011;3541;53.230;10.518;2022-07-22T01:55:15;12.52;;;10.50;;
7001;SDS011;3541;53.230;10.518;2022-07-22T01:57:41;12.18;;;10.73;;
7001;SDS011;3541;53.230;10.518;2022-07-22T02:00:08;15.52;;;11.73;;
7001;SDS011;3541;53.230;10.518;2022-07-22T02:02:36;13.65;;;12.23;;
7001;SDS011;3541;53.230;10.518;2022-07-22T02:05:04;12.80;;;11.50;;
7001;SDS011;3541;53.230;10.518;2022-07-22T02:07:31;15.13;;;12.75;;
7001;SDS011;3541;53.230;10.518;2022-07-22T02:09:58;14.80;;;13.20;;
7001;SDS011;3541;53.230;10.518;2022-07-22T02:12:26;16.10;;;13.70;;
7001;SDS011;3541;53.230;10.518;2022-07-22T02:14:53;10.70;;;9.40;;
7001;SDS011;3541;53.230;10.518;2022-07-22T02:17:19;10.35;;;7.32;;
7001;SDS011;3541;53.230;10.518;2022-07-22T02:19:46;7.05;;;6.35;;
7001;SDS011;3541;53.230;10.518;2022-07-22T02:22:13;6.03;;;4.82;;
7001;SDS011;3541;53.230;10.518;2022-07-22T02:24:39;5.43;;;4.93;;
7001;SDS011;3541;53.230;10.518;2022-07-22T02:27:06;6.07;;;4.22;;
7001;SDS011;3541;53.230;10.518;2022-07-22T02:29:34;6.13;;;4.63;;
7001;SDS011;3541;53.230;10.518;2022-07-22T02:32:00;5.07;;;4.28;;
7001;SDS011;3541;53.230;10.518;2022-07-22T02:34:27;4.95;;;4.38;;
7001;SDS011;3541;53.230;10.518;2022-07-22T02:36:53;5.32;;;3.55;;
7001;SDS011;3541;53.230;10.518;2022-07-22T02:39:20;4.28;;;3.88;;
7001;SDS011;3541;53.230;10.518;2022-07-22T02:41:47;3.67;;;3.10;;
7001;SDS011;3541;53.230;10.518;2022-07-22T02:44:14;3.55;;;2.78;;
7001;SDS011;3541;53.230;10.518;2022-07-22T02:46:41;7.63;;;2.58;;
7001;SDS011;3541;53.230;10.518;2022-07-22T02:49:08;3.45;;;2.10;;
7001;SDS011;3541;53.230;10.518;2022-07-22T02:51:35;3.13;;;2.00;;
7001;SDS011;3541;53.230;10.518;2022-07-22T02:54:01;2.58;;;1.73;;
7001;SDS011;3541;53.230;10.518;2022-07-22T02:56:28;2.05;;;1.48;;
7001;SDS011;3541;53.230;10.518;2022-07-22T02:58:55;2.95;;;1.45;;
7001;SDS011;3541;53.230;10.518;2022-07-22T03:01:21;2.53;;;1.50;;
7001;SDS011;3541;53.230;10.518;2022-07-22T03:03:49;1.85;;;1.23;;
7001;SDS011;3541;53.230;10.518;2022-07-22T03:06:16;1.98;;;1.30;;
7001;SDS011;3541;53.230;10.518;2022-07-22T03:08:42;2.78;;;1.40;;
7001;SDS011;3541;53.230;10.518;2022-07-22T03:11:09;1.58;;;1.48;;
7001;SDS011;3541;53.230;10.518;2022-07-22T03:13:36;1.73;;;1.55;;
7001;SDS011;3541;53.230;10.518;2022-07-22T03:16:02;1.95;;;1.80;;
7001;SDS011;3541;53.230;10.518;2022-07-22T03:18:29;3.42;;;1.88;;
7001;SDS011;3541;53.230;10.518;2022-07-22T03:20:57;2.70;;;2.25;;
7001;SDS011;3541;53.230;10.518;2022-07-22T03:23:24;3.38;;;2.55;;
7001;SDS011;3541;53.230;10.518;2022-07-22T03:25:51;3.88;;;2.47;;
7001;SDS011;3541;53.230;10.518;2022-07-22T03:28:17;3.30;;;3.00;;
7001;SDS011;3541;53.230;10.518;2022-07-22T03:30:44;3.25;;;2.70;;
7001;SDS011;3541;53.230;10.518;2022-07-22T03:33:10;3.47;;;2.97;;
7001;SDS011;3541;53.230;10.518;2022-07-22T03:35:37;3.83;;;2.85;;
7001;SDS011;3541;53.230;10.518;2022-07-22T03:38:05;3.13;;;2.83;;
7001;SDS011;3541;53.230;10.518;2022-07-22T03:40:32;3.05;;;2.70;;
7001;SDS011;3541;53.230;10.518;2022-07-22T03:42:58;4.90;;;2.75;;
7001;SDS011;3541;53.230;10.518;2022-07-22T03:45:25;3.80;;;2.45;;
7001;SDS011;3541;53.230;10.518;2022-07-22T03:47:51;4.07;;;2.20;;
7001;SDS011;3541;53.230;10.518;2022-07-22T03:50:19;2.95;;;2.58;;
7001;SDS011;3541;53.230;10.518;2022-07-22T03:52:46;3.38;;;2.53;;
7001;SDS011;3541;53.230;10.518;2022-07-22T03:55:14;3.67;;;2.30;;
7001;SDS011;3541;53.230;10.518;2022-07-22T03:57:40;6.97;;;2.70;;
7001;SDS011;3541;53.230;10.518;2022-07-22T04:00:07;4.95;;;2.50;;
7001;SDS011;3541;53.230;10.518;2022-07-22T04:02:34;4.38;;;2.42;;
7001;SDS011;3541;53.230;10.518;2022-07-22T04:05:01;6.75;;;2.60;;
7001;SDS011;3541;53.230;10.518;2022-07-22T04:07:28;4.78;;;2.65;;
7001;SDS011;3541;53.230;10.518;2022-07-22T04:09:54;2.92;;;2.13;;
7001;SDS011;3541;53.230;10.518;2022-07-22T04:12:31;3.33;;;2.03;;
7001;SDS011;3541;53.230;10.518;2022-07-22T04:14:58;2.38;;;2.10;;
7001;SDS011;3541;53.230;10.518;2022-07-22T04:17:25;3.08;;;2.40;;
7001;SDS011;3541;53.230;10.518;2022-07-22T04:19:51;4.47;;;2.00;;
7001;SDS011;3541;53.230;10.518;2022-07-22T04:22:18;2.22;;;2.03;;
7001;SDS011;3541;53.230;10.518;2022-07-22T04:24:45;4.28;;;2.33;;
7001;SDS011;3541;53.230;10.518;2022-07-22T04:27:11;3.53;;;2.22;;
7001;SDS011;3541;53.230;10.518;2022-07-22T04:29:39;4.85;;;2.30;;
7001;SDS011;3541;53.230;10.518;2022-07-22T04:32:06;2.97;;;2.15;;
7001;SDS011;3541;53.230;10.518;2022-07-22T04:34:32;4.68;;;2.28;;
7001;SDS011;3541;53.230;10.518;2022-07-22T04:36:59;4.20;;;2.35;;
7001;SDS011;3541;53.230;10.518;2022-07-22T04:39:26;4.28;;;3.30;;
7001;SDS011;3541;53.230;10.518;2022-07-22T04:41:52;5.60;;;3.38;;
7001;SDS011;3541;53.230;10.518;2022-07-22T04:44:19;7.30;;;3.03;;
7001;SDS011;3541;53.230;10.518;2022-07-22T04:46:47;5.93;;;3.53;;
7001;SDS011;3541;53.230;10.518;2022-07-22T04:49:14;5.07;;;3.20;;
7001;SDS011;3541;53.230;10.518;2022-07-22T04:51:40;6.95;;;3.58;;
7001;SDS011;3541;53.230;10.518;2022-07-22T04:54:07;6.50;;;3.50;;
7001;SDS011;3541;53.230;10.518;2022-07-22T04:56:34;5.30;;;3.28;;
7001;SDS011;3541;53.230;10.518;2022-07-22T04:59:00;5.28;;;2.90;;
7001;SDS011;3541;53.230;10.518;2022-07-22T05:01:27;4.25;;;2.55;;
7001;SDS011;3541;53.230;10.518;2022-07-22T05:03:55;4.82;;;3.33;;
7001;SDS011;3541;53.230;10.518;2022-07-22T05:06:21;6.47;;;3.13;;
7001;SDS011;3541;53.230;10.518;2022-07-22T05:08:48;6.10;;;2.83;;
7001;SDS011;3541;53.230;10.518;2022-07-22T05:11:14;4.07;;;2.70;;
7001;SDS011;3541;53.230;10.518;2022-07-22T05:13:41;4.40;;;2.70;;
7001;SDS011;3541;53.230;10.518;2022-07-22T05:16:08;6.03;;;3.15;;
7001;SDS011;3541;53.230;10.518;2022-07-22T05:18:34;3.33;;;3.00;;
7001;SDS011;3541;53.230;10.518;2022-07-22T05:21:02;5.82;;;2.72;;
7001;SDS011;3541;53.230;10.518;2022-07-22T05:23:29;7.10;;;2.88;;
7001;SDS011;3541;53.230;10.518;2022-07-22T05:25:57;4.65;;;2.70;;
7001;SDS011;3541;53.230;10.518;2022-07-22T05:28:23;10.52;;;2.70;;
7001;SDS011;3541;53.230;10.518;2022-07-22T05:30:50;6.25;;;3.00;;
7001;SDS011;3541;53.230;10.518;2022-07-22T05:33:17;4.95;;;2.80;;
7001;SDS011;3541;53.230;10.518;2022-07-22T05:35:43;10.25;;;3.13;;
7001;SDS011;3541;53.230;10.518;2022-07-22T05:38:11;4.50;;;2.55;;
7001;SDS011;3541;53.230;10.518;2022-07-22T05:40:38;6.18;;;2.72;;
7001;SDS011;3541;53.230;10.518;2022-07-22T05:43:05;5.40;;;3.03;;
7001;SDS011;3541;53.230;10.518;2022-07-22T05:45:31;5.63;;;2.70;;
7001;SDS011;3541;53.230;10.518;2022-07-22T05:47:58;7.32;;;3.15;;
7001;SDS011;3541;53.230;10.518;2022-07-22T05:50:26;4.28;;;2.70;;
7001;SDS011;3541;53.230;10.518;2022-07-22T05:52:52;6.22;;;2.65;;
7001;SDS011;3541;53.230;10.518;2022-07-22T05:55:20;8.27;;;2.45;;
7001;SDS011;3541;53.230;10.518;2022-07-22T05:57:47;7.60;;;3.25;;
7001;SDS011;3541;53.230;10.518;2022-07-22T06:00:13;7.70;;;3.08;;
7001;SDS011;3541;53.230;10.518;2022-07-22T06:02:41;3.78;;;2.63;;
7001;SDS011;3541;53.230;10.518;2022-07-22T06:05:07;6.03;;;3.22;;
7001;SDS011;3541;53.230;10.518;2022-07-22T06:07:34;5.25;;;2.97;;
7001;SDS011;3541;53.230;10.518;2022-07-22T06:10:01;8.50;;;2.50;;
7001;SDS011;3541;53.230;10.518;2022-07-22T06:12:30;5.28;;;2.78;;
7001;SDS011;3541;53.230;10.518;2022-07-22T06:14:57;4.65;;;2.22;;
7001;SDS011;3541;53.230;10.518;2022-07-22T06:17:23;6.53;;;2.67;;
7001;SDS011;3541;53.230;10.518;2022-07-22T06:19:50;6.97;;;2.25;;
7001;SDS011;3541;53.230;10.518;2022-07-22T06:22:16;5.43;;;2.50;;
7001;SDS011;3541;53.230;10.518;2022-07-22T06:24:43;5.97;;;2.33;;
7001;SDS011;3541;53.230;10.518;2022-07-22T06:27:10;8.93;;;2.53;;
7001;SDS011;3541;53.230;10.518;2022-07-22T06:29:38;4.20;;;2.33;;
7001;SDS011;3541;53.230;10.518;2022-07-22T06:32:05;5.18;;;2.30;;
7001;SDS011;3541;53.230;10.518;2022-07-22T06:34:32;4.40;;;2.30;;
7001;SDS011;3541;53.230;10.518;2022-07-22T06:36:59;4.85;;;2.45;;
7001;SDS011;3541;53.230;10.518;2022-07-22T06:39:26;1.98;;;1.70;;
7001;SDS011;3541;53.230;10.518;2022-07-22T06:41:52;4.00;;;1.85;;
7001;SDS011;3541;53.230;10.518;2022-07-22T06:44:19;2.58;;;1.90;;
7001;SDS011;3541;53.230;10.518;2022-07-22T06:46:47;2.53;;;1.60;;
7001;SDS011;3541;53.230;10.518;2022-07-22T06:49:14;3.60;;;2.10;;
7001;SDS011;3541;53.230;10.518;2022-07-22T06:51:40;5.93;;;1.88;;
7001;SDS011;3541;53.230;10.518;2022-07-22T06:54:07;4.70;;;2.40;;
7001;SDS011;3541;53.230;10.518;2022-07-22T06:56:33;3.33;;;1.95;;
7001;SDS011;3541;53.230;10.518;2022-07-22T06:59:00;2.97;;;2.03;;
7001;SDS011;3541;53.230;10.518;2022-07-22T07:01:27;5.22;;;2.30;;
7001;SDS011;3541;53.230;10.518;2022-07-22T07:03:55;4.32;;;1.90;;
7001;SDS011;3541;53.230;10.518;2022-07-22T07:06:21;7.10;;;2.40;;
7001;SDS011;3541;53.230;10.518;2022-07-22T07:08:48;3.70;;;2.13;;
7001;SDS011;3541;53.230;10.518;2022-07-22T07:11:14;4.38;;;2.10;;
7001;SDS011;3541;53.230;10.518;2022-07-22T07:13:41;4.45;;;2.17;;
7001;SDS011;3541;53.230;10.518;2022-07-22T07:16:08;7.43;;;2.38;;
7001;SDS011;3541;53.230;10.518;2022-07-22T07:18:35;8.25;;;2.55;;
7001;SDS011;3541;53.230;10.518;2022-07-22T07:21:04;6.57;;;2.42;;
7001;SDS011;3541;53.230;10.518;2022-07-22T07:23:31;6.30;;;2.38;;
7001;SDS011;3541;53.230;10.518;2022-07-22T07:25:58;6.75;;;2.28;;
7001;SDS011;3541;53.230;10.518;2022-07-22T07:28:24;8.00;;;2.50;;
7001;SDS011;3541;53.230;10.518;2022-07-22T07:30:51;5.38;;;2.67;;
7001;SDS011;3541;53.230;10.518;2022-07-22T07:33:18;9.18;;;2.90;;
7001;SDS011;3541;53.230;10.518;2022-07-22T07:35:44;4.25;;;2.30;;
7001;SDS011;3541;53.230;10.518;2022-07-22T07:38:12;7.15;;;2.65;;
7001;SDS011;3541;53.230;10.518;2022-07-22T07:40:39;5.10;;;2.20;;
7001;SDS011;3541;53.230;10.518;2022-07-22T07:43:06;10.02;;;2.70;;
7001;SDS011;3541;53.230;10.518;2022-07-22T07:45:32;5.20;;;2.30;;
7001;SDS011;3541;53.230;10.518;2022-07-22T07:47:59;8.35;;;2.75;;
7001;SDS011;3541;53.230;10.518;2022-07-22T07:50:26;6.35;;;2.75;;
7001;SDS011;3541;53.230;10.518;2022-07-22T07:52:53;8.25;;;2.88;;
7001;SDS011;3541;53.230;10.518;2022-07-22T07:55:21;5.82;;;2.85;;
7001;SDS011;3541;53.230;10.518;2022-07-22T07:57:48;6.03;;;2.75;;
7001;SDS011;3541;53.230;10.518;2022-07-22T08:00:17;7.13;;;2.72;;
7001;SDS011;3541;53.230;10.518;2022-07-22T08:02:48;9.77;;;2.80;;
7001;SDS011;3541;53.230;10.518;2022-07-22T08:05:14;9.30;;;2.83;;
7001;SDS011;3541;53.230;10.518;2022-07-22T08:07:41;5.70;;;2.88;;
7001;SDS011;3541;53.230;10.518;2022-07-22T08:10:08;5.70;;;2.67;;
7001;SDS011;3541;53.230;10.518;2022-07-22T08:12:36;9.63;;;2.45;;
7001;SDS011;3541;53.230;10.518;2022-07-22T08:15:03;8.68;;;2.60;;
7001;SDS011;3541;53.230;10.518;2022-07-22T08:17:30;7.32;;;2.47;;
7001;SDS011;3541;53.230;10.518;2022-07-22T08:19:56;9.68;;;3.00;;
7001;SDS011;3541;53.230;10.518;2022-07-22T08:22:23;7.00;;;2.75;;
7001;SDS011;3541;53.230;10.518;2022-07-22T08:24:50;8.50;;;2.75;;
7001;SDS011;3541;53.230;10.518;2022-07-22T08:27:16;4.95;;;2.10;;
7001;SDS011;3541;53.230;10.518;2022-07-22T08:29:44;5.05;;;2.90;;
7001;SDS011;3541;53.230;10.518;2022-07-22T08:32:11;6.15;;;2.30;;
7001;SDS011;3541;53.230;10.518;2022-07-22T08:34:37;6.55;;;2.33;;
7001;SDS011;3541;53.230;10.518;2022-07-22T08:37:04;4.95;;;2.40;;
7001;SDS011;3541;53.230;10.518;2022-07-22T08:39:31;5.45;;;2.40;;
7001;SDS011;3541;53.230;10.518;2022-07-22T08:41:59;5.03;;;2.28;;
7001;SDS011;3541;53.230;10.518;2022-07-22T08:44:28;6.63;;;2.53;;
7001;SDS011;3541;53.230;10.518;2022-07-22T08:46:57;9.98;;;2.60;;
7001;SDS011;3541;53.230;10.518;2022-07-22T08:49:24;8.23;;;3.10;;
7001;SDS011;3541;53.230;10.518;2022-07-22T08:51:50;5.80;;;2.67;;
7001;SDS011;3541;53.230;10.518;2022-07-22T08:54:17;8.20;;;2.58;;
7001;SDS011;3541;53.230;10.518;2022-07-22T08:56:45;6.43;;;2.53;;
7001;SDS011;3541;53.230;10.518;2022-07-22T08:59:12;5.13;;;2.00;;
7001;SDS011;3541;53.230;10.518;2022-07-22T09:01:39;8.27;;;2.50;;
7001;SDS011;3541;53.230;10.518;2022-07-22T09:04:32;5.53;;;2.30;;
7001;SDS011;3541;53.230;10.518;2022-07-22T09:07:17;7.70;;;2.58;;
7001;SDS011;3541;53.230;10.518;2022-07-22T09:09:49;7.03;;;2.47;;
7001;SDS011;3541;53.230;10.518;2022-07-22T09:12:16;9.93;;;2.50;;
7001;SDS011;3541;53.230;10.518;2022-07-22T09:14:43;7.70;;;3.03;;
7001;SDS011;3541;53.230;10.518;2022-07-22T09:17:25;8.85;;;2.65;;
7001;SDS011;3541;53.230;10.518;2022-07-22T09:19:53;3.35;;;2.10;;
7001;SDS011;3541;53.230;10.518;2022-07-22T09:22:30;5.78;;;2.42;;
7001;SDS011;3541;53.230;10.518;2022-07-22T09:24:58;8.88;;;2.47;;
7001;SDS011;3541;53.230;10.518;2022-07-22T09:27:35;5.80;;;2.10;;
7001;SDS011;3541;53.230;10.518;2022-07-22T09:30:01;7.25;;;2.80;;
7001;SDS011;3541;53.230;10.518;2022-07-22T09:32:31;4.53;;;2.40;;
7001;SDS011;3541;53.230;10.518;2022-07-22T09:35:06;7.43;;;2.90;;
7001;SDS011;3541;53.230;10.518;2022-07-22T09:37:33;7.20;;;2.83;;
7001;SDS011;3541;53.230;10.518;2022-07-22T09:40:11;6.18;;;2.40;;
7001;SDS011;3541;53.230;10.518;2022-07-22T09:42:43;7.68;;;2.58;;
7001;SDS011;3541;53.230;10.518;2022-07-22T09:45:11;9.60;;;2.92;;
7001;SDS011;3541;53.230;10.518;2022-07-22T09:47:39;6.15;;;2.60;;
7001;SDS011;3541;53.230;10.518;2022-07-22T09:50:13;6.70;;;2.80;;
7001;SDS011;3541;53.230;10.518;2022-07-22T09:52:41;5.07;;;2.40;;
7001;SDS011;3541;53.230;10.518;2022-07-22T09:55:08;8.75;;;3.95;;
7001;SDS011;3541;53.230;10.518;2022-07-22T09:57:35;7.13;;;2.60;;
7001;SDS011;3541;53.230;10.518;2022-07-22T10:00:03;5.68;;;2.95;;
7001;SDS011;3541;53.230;10.518;2022-07-22T10:02:31;7.07;;;3.00;;
7001;SDS011;3541;53.230;10.518;2022-07-22T10:05:03;7.63;;;2.80;;
7001;SDS011;3541;53.230;10.518;2022-07-22T10:07:30;6.63;;;2.80;;
7001;SDS011;3541;53.230;10.518;2022-07-22T10:09:57;6.90;;;2.50;;
7001;SDS011;3541;53.230;10.518;2022-07-22T10:12:24;7.88;;;2.28;;
7001;SDS011;3541;53.230;10.518;2022-07-22T10:14:52;9.52;;;2.38;;
7001;SDS011;3541;53.230;10.518;2022-07-22T10:17:19;5.82;;;2.60;;
7001;SDS011;3541;53.230;10.518;2022-07-22T10:19:46;7.60;;;2.85;;
7001;SDS011;3541;53.230;10.518;2022-07-22T10:25:12;7.40;;;2.80;;
7001;SDS011;3541;53.230;10.518;2022-07-22T10:27:43;6.57;;;2.65;;
7001;SDS011;3541;53.230;10.518;2022-07-22T10:30:10;7.40;;;3.47;;
7001;SDS011;3541;53.230;10.518;2022-07-22T10:32:39;6.97;;;2.80;;
7001;SDS011;3541;53.230;10.518;2022-07-22T10:35:24;5.15;;;2.42;;
7001;SDS011;3541;53.230;10.518;2022-07-22T10:37:54;5.68;;;2.35;;
7001;SDS011;3541;53.230;10.518;2022-07-22T10:40:22;5.35;;;2.20;;
7001;SDS011;3541;53.230;10.518;2022-07-22T10:45:37;4.72;;;2.30;;
7001;SDS011;3541;53.230;10.518;2022-07-22T10:48:06;6.85;;;2.28;;
7001;SDS011;3541;53.230;10.518;2022-07-22T10:50:39;8.27;;;2.83;;
7001;SDS011;3541;53.230;10.518;2022-07-22T10:53:09;5.22;;;2.80;;
7001;SDS011;3541;53.230;10.518;2022-07-22T10:55:37;3.97;;;2.47;;
7001;SDS011;3541;53.230;10.518;2022-07-22T11:01:06;6.63;;;2.53;;
7001;SDS011;3541;53.230;10.518;2022-07-22T11:03:35;5.30;;;2.67;;
7001;SDS011;3541;53.230;10.518;2022-07-22T11:06:12;5.47;;;2.22;;
7001;SDS011;3541;53.230;10.518;2022-07-22T11:08:45;4.22;;;2.25;;
7001;SDS011;3541;53.230;10.518;2022-07-22T11:11:15;6.22;;;2.55;;
7001;SDS011;3541;53.230;10.518;2022-07-22T11:13:42;6.13;;;2.40;;
7001;SDS011;3541;53.230;10.518;2022-07-22T11:16:14;5.90;;;2.42;;
7001;SDS011;3541;53.230;10.518;2022-07-22T11:18:46;5.30;;;2.40;;
7001;SDS011;3541;53.230;10.518;2022-07-22T11:21:14;7.90;;;2.75;;
7001;SDS011;3541;53.230;10.518;2022-07-22T11:23:42;7.53;;;2.47;;
7001;SDS011;3541;53.230;10.518;2022-07-22T11:26:15;6.28;;;2.83;;
7001;SDS011;3541;53.230;10.518;2022-07-22T11:28:43;6.13;;;2.35;;
7001;SDS011;3541;53.230;10.518;2022-07-22T11:31:13;7.75;;;2.22;;
7001;SDS011;3541;53.230;10.518;2022-07-22T11:33:41;6.53;;;2.65;;
7001;SDS011;3541;53.230;10.518;2022-07-22T11:36:08;4.55;;;2.05;;
7001;SDS011;3541;53.230;10.518;2022-07-22T11:38:39;8.05;;;2.97;;
7001;SDS011;3541;53.230;10.518;2022-07-22T11:41:08;3.42;;;2.20;;
7001;SDS011;3541;53.230;10.518;2022-07-22T11:43:39;4.03;;;2.15;;
7001;SDS011;3541;53.230;10.518;2022-07-22T11:46:07;5.40;;;1.92;;
7001;SDS011;3541;53.230;10.518;2022-07-22T11:48:34;4.13;;;1.92;;
7001;SDS011;3541;53.230;10.518;2022-07-22T11:51:02;5.32;;;2.28;;
7001;SDS011;3541;53.230;10.518;2022-07-22T11:53:30;5.60;;;2.30;;
7001;SDS011;3541;53.230;10.518;2022-07-22T11:55:57;6.03;;;2.13;;
7001;SDS011;3541;53.230;10.518;2022-07-22T11:58:38;4.13;;;2.17;;
7001;SDS011;3541;53.230;10.518;2022-07-22T12:01:07;5.20;;;2.40;;
7001;SDS011;3541;53.230;10.518;2022-07-22T12:03:35;18.48;;;4.25;;
7001;SDS011;3541;53.230;10.518;2022-07-22T12:06:04;6.18;;;2.83;;
7001;SDS011;3541;53.230;10.518;2022-07-22T12:08:33;6.78;;;2.20;;
7001;SDS011;3541;53.230;10.518;2022-07-22T12:11:04;5.55;;;2.50;;
7001;SDS011;3541;53.230;10.518;2022-07-22T12:13:31;6.22;;;2.50;;
7001;SDS011;3541;53.230;10.518;2022-07-22T12:15:59;5.32;;;2.17;;
7001;SDS011;3541;53.230;10.518;2022-07-22T12:18:41;5.50;;;2.03;;
7001;SDS011;3541;53.230;10.518;2022-07-22T12:21:08;2.53;;;1.85;;
7001;SDS011;3541;53.230;10.518;2022-07-22T12:23:34;6.53;;;2.88;;
7001;SDS011;3541;53.230;10.518;2022-07-22T12:26:01;4.68;;;2.30;;
7001;SDS011;3541;53.230;10.518;2022-07-22T12:28:28;6.28;;;1.90;;
7001;SDS011;3541;53.230;10.518;2022-07-22T12:30:55;4.40;;;2.05;;
7001;SDS011;3541;53.230;10.518;2022-07-22T12:33:23;2.42;;;1.77;;
7001;SDS011;3541;53.230;10.518;2022-07-22T12:36:00;3.97;;;1.70;;
7001;SDS011;3541;53.230;10.518;2022-07-22T12:38:29;4.55;;;2.30;;
7001;SDS011;3541;53.230;10.518;2022-07-22T12:40:56;5.25;;;2.45;;
7001;SDS011;3541;53.230;10.518;2022-07-22T12:43:45;5.07;;;2.28;;
7001;SDS011;3541;53.230;10.518;2022-07-22T12:46:11;6.93;;;2.15;;
7001;SDS011;3541;53.230;10.518;2022-07-22T12:48:39;4.07;;;2.30;;
7001;SDS011;3541;53.230;10.518;2022-07-22T12:51:14;6.65;;;2.85;;
7001;SDS011;3541;53.230;10.518;2022-07-22T12:53:41;5.63;;;2.30;;
7001;SDS011;3541;53.230;10.518;2022-07-22T12:56:08;6.80;;;2.80;;
7001;SDS011;3541;53.230;10.518;2022-07-22T12:58:35;5.32;;;2.17;;
7001;SDS011;3541;53.230;10.518;2022-07-22T13:01:05;5.78;;;2.45;;
7001;SDS011;3541;53.230;10.518;2022-07-22T13:03:32;4.63;;;2.08;;
7001;SDS011;3541;53.230;10.518;2022-07-22T13:06:02;4.95;;;2.60;;
7001;SDS011;3541;53.230;10.518;2022-07-22T13:08:30;4.20;;;2.05;;
7001;SDS011;3541;53.230;10.518;2022-07-22T13:10:57;4.72;;;2.22;;
7001;SDS011;3541;53.230;10.518;2022-07-22T13:13:24;3.90;;;2.00;;
7001;SDS011;3541;53.230;10.518;2022-07-22T13:15:51;2.88;;;1.98;;
7001;SDS011;3541;53.230;10.518;2022-07-22T13:18:18;9.05;;;2.40;;
7001;SDS011;3541;53.230;10.518;2022-07-22T13:20:45;5.38;;;2.10;;
7001;SDS011;3541;53.230;10.518;2022-07-22T13:23:13;5.28;;;1.73;;
7001;SDS011;3541;53.230;10.518;2022-07-22T13:25:40;4.18;;;2.33;;
7001;SDS011;3541;53.230;10.518;2022-07-22T13:28:06;4.68;;;2.22;;
7001;SDS011;3541;53.230;10.518;2022-07-22T13:30:33;2.63;;;1.98;;
7001;SDS011;3541;53.230;10.518;2022-07-22T13:33:01;4.45;;;2.15;;
7001;SDS011;3541;53.230;10.518;2022-07-22T13:35:28;4.03;;;1.90;;
7001;SDS011;3541;53.230;10.518;2022-07-22T13:37:55;3.67;;;1.90;;
7001;SDS011;3541;53.230;10.518;2022-07-22T13:40:24;5.45;;;2.38;;
7001;SDS011;3541;53.230;10.518;2022-07-22T13:42:50;5.55;;;2.17;;
7001;SDS011;3541;53.230;10.518;2022-07-22T13:45:17;4.55;;;2.00;;
7001;SDS011;3541;53.230;10.518;2022-07-22T13:47:45;4.57;;;2.33;;
7001;SDS011;3541;53.230;10.518;2022-07-22T13:50:11;4.03;;;1.80;;
7001;SDS011;3541;53.230;10.518;2022-07-22T13:52:38;4.70;;;2.00;;
7001;SDS011;3541;53.230;10.518;2022-07-22T13:55:05;3.70;;;2.25;;
7001;SDS011;3541;53.230;10.518;2022-07-22T13:57:33;3.65;;;2.03;;
7001;SDS011;3541;53.230;10.518;2022-07-22T14:00:00;6.40;;;2.35;;
7001;SDS011;3541;53.230;10.518;2022-07-22T14:02:27;3.08;;;1.60;;
7001;SDS011;3541;53.230;10.518;2022-07-22T14:04:53;4.25;;;1.80;;
7001;SDS011;3541;53.230;10.518;2022-07-22T14:07:20;4.22;;;1.98;;
7001;SDS011;3541;53.230;10.518;2022-07-22T14:09:46;4.88;;;2.08;;
7001;SDS011;3541;53.230;10.518;2022-07-22T14:12:13;3.13;;;2.15;;
7001;SDS011;3541;53.230;10.518;2022-07-22T14:14:41;5.47;;;1.92;;
7001;SDS011;3541;53.230;10.518;2022-07-22T14:17:07;7.05;;;2.03;;
7001;SDS011;3541;53.230;10.518;2022-07-22T14:19:34;4.15;;;1.88;;
7001;SDS011;3541;53.230;10.518;2022-07-22T14:22:01;3.65;;;2.10;;
7001;SDS011;3541;53.230;10.518;2022-07-22T14:24:27;5.88;;;2.00;;
7001;SDS011;3541;53.230;10.518;2022-07-22T14:26:54;3.50;;;1.92;;
7001;SDS011;3541;53.230;10.518;2022-07-22T14:29:21;5.50;;;2.38;;
7001;SDS011;3541;53.230;10.518;2022-07-22T14:31:50;4.30;;;1.83;;
7001;SDS011;3541;53.230;10.518;2022-07-22T14:34:16;3.80;;;2.00;;
7001;SDS011;3541;53.230;10.518;2022-07-22T14:36:43;2.90;;;1.90;;
7001;SDS011;3541;53.230;10.518;2022-07-22T14:39:10;5.82;;;2.25;;
7001;SDS011;3541;53.230;10.518;2022-07-22T14:41:36;3.45;;;2.25;;
7001;SDS011;3541;53.230;10.518;2022-07-22T14:44:03;6.88;;;2.30;;
7001;SDS011;3541;53.230;10.518;2022-07-22T14:46:30;2.47;;;1.60;;
7001;SDS011;3541;53.230;10.518;2022-07-22T14:48:58;2.92;;;2.05;;
7001;SDS011;3541;53.230;10.518;2022-07-22T14:51:25;5.00;;;2.38;;
7001;SDS011;3541;53.230;10.518;2022-07-22T14:53:51;3.85;;;2.13;;
7001;SDS011;3541;53.230;10.518;2022-07-22T14:56:18;4.53;;;1.80;;
7001;SDS011;3541;53.230;10.518;2022-07-22T14:58:45;3.50;;;1.60;;
7001;SDS011;3541;53.230;10.518;2022-07-22T15:01:12;5.70;;;1.80;;
7001;SDS011;3541;53.230;10.518;2022-07-22T15:03:39;4.53;;;2.15;;
7001;SDS011;3541;53.230;10.518;2022-07-22T15:06:07;3.03;;;2.00;;
7001;SDS011;3541;53.230;10.518;2022-07-22T15:08:34;2.28;;;1.55;;
7001;SDS011;3541;53.230;10.518;2022-07-22T15:11:00;4.10;;;1.90;;
7001;SDS011;3541;53.230;10.518;2022-07-22T15:13:27;4.07;;;2.40;;